createdAt,value
2022-11-19T00:47:22.366Z,101142.56
2022-11-19T00:49:50.043Z,101147.34
2022-11-19T00:52:17.654Z,101148.97
2022-11-19T00:54:45.444Z,101143.75
2022-11-19T00:57:13.451Z,101148.53
2022-11-19T00:59:41.054Z,101154.13
2022-11-19T01:46:06.460Z,101147.63
2022-11-19T01:48:34.030Z,101153.22
2022-11-19T01:51:02.617Z,101153.22
2022-11-19T01:53:30.473Z,101157.22
2022-11-19T01:55:59.580Z,101165.25
2022-11-19T01:58:27.242Z,101168.41
2022-11-19T02:47:48.244Z,101175.47
2022-11-19T02:50:16.818Z,101181.06
2022-11-19T02:52:44.572Z,101178.25
2022-11-19T02:55:12.865Z,101170.66
2022-11-19T02:57:40.646Z,101164.25
2022-11-19T03:47:05.887Z,101188.53
2022-11-19T03:49:34.581Z,101196.13
2022-11-19T03:52:03.727Z,101195.31
2022-11-19T03:54:31.356Z,101196.13
2022-11-19T03:56:58.934Z,101197.31
2022-11-19T03:59:29.576Z,101204.91
2022-11-19T04:45:53.609Z,101192.03
2022-11-19T04:48:21.369Z,101197.66
2022-11-19T04:50:48.962Z,101196.84
2022-11-19T04:53:16.791Z,101198.47
2022-11-19T04:55:44.402Z,101198.47
2022-11-19T04:58:12.086Z,101196.50
2022-11-19T05:30:55.914Z,101182.50
2022-11-19T05:33:23.592Z,101179.69
2022-11-19T05:35:51.133Z,101187.25
2022-11-19T05:38:18.859Z,101186.91
2022-11-19T05:40:47.010Z,101180.50
2022-11-19T05:43:15.097Z,101186.91
2022-11-19T05:45:42.825Z,101177.72
2022-11-19T05:48:11.774Z,101172.91
2022-11-19T05:50:39.396Z,101167.31
2022-11-19T05:53:06.993Z,101171.28
2022-11-19T05:55:34.525Z,101170.44
2022-11-19T05:58:02.324Z,101177.72
2022-11-19T06:00:29.901Z,101175.25
2022-11-19T06:02:57.615Z,101176.91
2022-11-19T06:05:26.703Z,101184.47
2022-11-19T06:07:54.380Z,101181.66
2022-11-19T06:10:21.935Z,101176.91
2022-11-19T06:12:49.565Z,101188.09
2022-11-19T06:15:17.524Z,101184.81
2022-11-19T06:17:45.077Z,101194.84
2022-11-19T06:20:12.733Z,101193.69
2022-11-19T06:22:41.728Z,101195.31
2022-11-19T06:25:09.803Z,101191.72
2022-11-19T06:27:37.385Z,101199.31
2022-11-19T06:30:05.496Z,101206.53
2022-11-19T06:32:33.158Z,101204.91
2022-11-19T06:35:00.769Z,101203.25
2022-11-19T06:37:28.358Z,101210.50
2022-11-19T06:39:57.377Z,101210.50
2022-11-19T06:42:39.988Z,101208.84
2022-11-19T06:45:07.984Z,101214.47
2022-11-19T06:47:35.542Z,101204.91
2022-11-19T06:50:03.145Z,101197.66
2022-11-19T06:52:30.849Z,101197.66
2022-11-19T06:54:59.837Z,101189.25
2022-11-19T06:57:27.367Z,101183.66
2022-11-19T06:59:54.991Z,101183.19
2022-11-19T07:02:22.599Z,101184.81
2022-11-19T07:04:50.208Z,101179.22
2022-11-19T07:07:18.042Z,101191.25
2022-11-19T07:09:45.672Z,101186.00
2022-11-19T07:12:14.583Z,101185.63
2022-11-19T07:14:42.368Z,101184.81
2022-11-19T07:17:09.999Z,101186.44
2022-11-19T07:19:37.580Z,101184.81
2022-11-19T07:22:05.153Z,101184.00
2022-11-19T07:24:33.097Z,101186.44
2022-11-19T07:27:00.766Z,101196.03
2022-11-19T07:29:29.719Z,101200.44
2022-11-19T07:31:57.308Z,101197.66
2022-11-19T07:34:24.966Z,101207.22
2022-11-19T07:36:52.575Z,101201.63
2022-11-19T07:39:20.440Z,101197.19
2022-11-19T07:42:05.770Z,101196.84
2022-11-19T07:44:36.063Z,101194.41
2022-11-19T07:47:03.795Z,101190.41
2022-11-19T07:49:31.434Z,101189.25
2022-11-19T07:51:59.043Z,101196.03
2022-11-19T07:54:26.635Z,101188.44
2022-11-19T07:56:54.263Z,101190.41
2022-11-19T07:59:22.073Z,101191.25
2022-11-19T08:01:51.348Z,101193.22
2022-11-19T08:04:18.920Z,101192.03
2022-11-19T08:06:46.497Z,101192.03
2022-11-19T08:09:14.004Z,101203.25
2022-11-19T08:11:41.547Z,101197.66
2022-11-19T08:14:09.225Z,101186.44
2022-11-19T08:16:54.202Z,101190.41
2022-11-19T08:19:23.420Z,101190.41
2022-11-19T08:21:51.241Z,101188.81
2022-11-19T08:24:19.576Z,101183.19
2022-11-19T08:26:47.843Z,101176.78
2022-11-19T08:29:16.708Z,101175.59
2022-11-19T08:31:45.185Z,101170.81
2022-11-19T08:34:12.861Z,101166.41
2022-11-19T08:36:41.822Z,101160.78
2022-11-19T08:39:10.144Z,101161.97
2022-11-19T08:41:55.407Z,101167.22
2022-11-19T08:44:23.245Z,101164.03
2022-11-19T08:46:51.359Z,101161.22
2022-11-19T08:49:19.222Z,101160.09
2022-11-19T08:51:48.243Z,101164.84
2022-11-19T08:54:15.849Z,101165.69
2022-11-19T08:56:43.478Z,101165.69
2022-11-19T08:59:11.118Z,101160.09
2022-11-19T09:01:38.714Z,101154.50
2022-11-19T09:04:06.262Z,101159.25
2022-11-19T09:06:35.103Z,101148.88
2022-11-19T09:09:04.354Z,101154.50
2022-11-19T09:11:31.968Z,101155.28
2022-11-19T09:13:59.672Z,101147.72
2022-11-19T09:16:27.298Z,101152.94
2022-11-19T09:18:54.883Z,101156.56
2022-11-19T09:21:22.548Z,101161.44
2022-11-19T09:23:50.408Z,101165.88
2022-11-19T09:26:19.424Z,101156.28
2022-11-19T09:28:47.139Z,101173.09
2022-11-19T09:31:15.474Z,101160.28
2022-11-19T09:33:43.529Z,101162.69
2022-11-19T09:36:11.243Z,101167.13
2022-11-19T09:38:39.807Z,101173.53
2022-11-19T09:41:14.556Z,101176.34
2022-11-19T10:18:55.269Z,101161.53
2022-11-19T10:21:23.885Z,101153.94
2022-11-19T10:23:52.797Z,101148.31
2022-11-19T10:26:20.750Z,101148.31
2022-11-19T10:28:50.327Z,101144.38
2022-11-19T10:31:18.790Z,101131.53
2022-11-19T10:33:47.646Z,101133.16
2022-11-19T10:36:17.876Z,101127.56
2022-11-19T10:38:51.071Z,101116.69
2022-11-19T10:41:19.237Z,101117.16
2022-11-19T10:43:48.844Z,101107.97
2022-11-19T10:46:21.202Z,101109.09
2022-11-19T10:48:49.116Z,101114.72
2022-11-19T10:51:19.504Z,101116.69
2022-11-19T10:53:47.097Z,101117.16
2022-11-19T10:56:15.417Z,101115.53
2022-11-19T10:58:44.105Z,101114.38
2022-11-19T11:01:13.969Z,101114.38
2022-11-19T11:03:43.331Z,101106.78
2022-11-19T11:06:12.094Z,101101.50
2022-11-19T11:08:49.540Z,101097.91
2022-11-19T11:11:21.462Z,101101.88
2022-11-19T11:14:06.646Z,101099.88
2022-11-19T11:16:41.257Z,101100.69
2022-11-19T11:19:13.226Z,101102.34
2022-11-19T11:21:42.977Z,101088.34
2022-11-19T11:24:12.227Z,101082.75
2022-11-19T11:26:40.300Z,101083.56
2022-11-19T11:29:09.117Z,101066.75
2022-11-19T11:31:37.849Z,101057.53
2022-11-19T11:34:05.652Z,101052.25
2022-11-19T11:36:34.496Z,101064.28
2022-11-19T11:39:02.547Z,101053.88
2022-11-19T11:44:23.979Z,101064.28
2022-11-19T11:46:52.246Z,101055.88
2022-11-19T11:49:27.538Z,101052.25
2022-11-19T11:52:03.518Z,101043.06
2022-11-19T11:54:31.399Z,101045.84
2022-11-19T11:57:15.699Z,101044.22
2022-11-19T11:59:43.427Z,101040.25
2022-11-19T12:02:19.776Z,101040.25
2022-11-19T12:04:47.709Z,101037.44
2022-11-19T12:07:17.727Z,101040.25
2022-11-19T12:09:46.639Z,101023.44
2022-11-19T12:12:17.758Z,101031.03
2022-11-19T12:14:47.870Z,101031.03
2022-11-19T12:17:20.023Z,101025.88
2022-11-19T12:19:52.639Z,101027.53
2022-11-19T12:22:23.911Z,101037.91
2022-11-19T12:25:10.353Z,101037.91
2022-11-19T12:27:41.080Z,101041.53
2022-11-19T12:30:10.328Z,101045.16
2022-11-19T12:32:46.894Z,101040.34
2022-11-19T12:35:19.661Z,101041.16
2022-11-19T12:37:51.580Z,101035.56
2022-11-19T12:40:28.310Z,101034.38
2022-11-19T12:43:03.251Z,101029.94
2022-11-19T12:45:36.732Z,101029.13
2022-11-19T12:48:18.353Z,101035.13
2022-11-19T12:50:47.162Z,101035.13
2022-11-19T12:53:21.276Z,101035.13
2022-11-19T12:55:51.744Z,101022.72
2022-11-19T12:58:23.453Z,101035.56
2022-11-19T13:00:52.262Z,101029.94
2022-11-19T13:03:21.490Z,101031.56
2022-11-19T13:05:50.575Z,101027.59
2022-11-19T13:08:19.665Z,101025.97
2022-11-19T13:10:48.695Z,101026.78
2022-11-19T13:13:17.364Z,101019.19
2022-11-19T13:15:46.890Z,101021.97
2022-11-19T13:18:15.041Z,101023.16
2022-11-19T13:20:45.222Z,101015.19
2022-11-19T13:23:14.155Z,101012.41
2022-11-19T13:25:42.741Z,101017.19
2022-11-19T13:28:14.237Z,101016.03
2022-11-19T13:30:41.863Z,101012.41
2022-11-19T13:33:14.434Z,101014.03
2022-11-19T13:35:44.610Z,101020.47
2022-11-19T13:38:14.200Z,101014.84
2022-11-19T13:40:42.510Z,101012.06
2022-11-19T13:43:32.420Z,101014.03
2022-11-19T13:46:03.742Z,101007.25
2022-11-19T13:48:33.226Z,101012.41
2022-11-19T13:51:01.641Z,101013.59
2022-11-19T13:53:30.576Z,101013.59
2022-11-19T13:55:58.319Z,101004.38
2022-11-19T13:58:27.765Z,101004.72
2022-11-19T14:01:04.068Z,101005.91
2022-11-19T14:03:39.925Z,101003.47
2022-11-19T14:06:19.349Z,101003.47
2022-11-19T14:08:57.319Z,101003.47
2022-11-19T14:11:31.862Z,101004.31
2022-11-19T14:14:30.972Z,101005.09
2022-11-19T14:17:17.182Z,101006.72
2022-11-19T14:20:04.352Z,101011.53
2022-11-19T14:22:50.307Z,101004.31
2022-11-19T14:25:52.630Z,101005.91
2022-11-19T14:28:38.306Z,101010.72
2022-11-19T14:31:06.067Z,101002.31
2022-11-19T14:33:43.590Z,101005.09
2022-11-19T14:36:12.999Z,101010.72
2022-11-19T14:38:42.635Z,100999.50
2022-11-19T14:41:28.598Z,100993.09
2022-11-19T14:44:10.419Z,100992.25
2022-11-19T14:46:44.875Z,100993.09
2022-11-19T14:49:20.191Z,100990.72
2022-11-19T14:51:51.655Z,100996.34
2022-11-19T14:54:27.137Z,100983.50
2022-11-19T14:57:02.333Z,100982.31
2022-11-19T14:59:30.311Z,100986.75
2022-11-19T15:01:59.106Z,100989.53
2022-11-19T15:04:30.018Z,100991.53
2022-11-19T15:06:59.215Z,100984.31
2022-11-19T15:09:45.479Z,100992.34
2022-11-19T15:12:13.062Z,100994.72
2022-11-19T15:15:01.446Z,100996.34
2022-11-19T15:17:29.196Z,100993.16
2022-11-19T15:20:01.994Z,100990.72
2022-11-19T15:22:34.097Z,100984.97
2022-11-19T15:25:05.055Z,100994.53
2022-11-19T15:27:37.627Z,100989.09
2022-11-19T15:30:07.136Z,100978.72
2022-11-19T15:32:40.518Z,100984.97
2022-11-19T15:35:14.863Z,100980.25
2022-11-19T15:37:46.931Z,100975.09
2022-11-19T15:40:15.530Z,100970.69
2022-11-19T15:42:46.156Z,100976.72
2022-11-19T15:45:14.009Z,100976.72
2022-11-19T15:47:43.211Z,100969.94
2022-11-19T15:50:11.890Z,100965.50
2022-11-19T15:52:39.586Z,100964.34
2022-11-19T15:55:18.520Z,100969.94
2022-11-19T15:57:46.492Z,100965.50
2022-11-19T16:00:16.129Z,100964.34
2022-11-19T16:02:43.744Z,100962.72
2022-11-19T16:05:17.607Z,100978.34
2022-11-19T16:07:45.427Z,100969.13
2022-11-19T16:10:15.150Z,100964.34
2022-11-19T16:13:00.097Z,100965.16
2022-11-19T16:15:44.965Z,100954.75
2022-11-19T16:18:15.423Z,100960.34
2022-11-19T16:20:44.636Z,100958.72
2022-11-19T16:23:12.380Z,100955.94
2022-11-19T16:25:41.867Z,100954.75
2022-11-19T16:28:11.873Z,100951.78
2022-11-19T16:30:42.204Z,100954.16
2022-11-19T16:33:12.927Z,100948.09
2022-11-19T16:35:40.542Z,100948.97
2022-11-19T16:38:11.411Z,100945.75
2022-11-19T16:40:52.827Z,100966.31
2022-11-19T16:43:22.671Z,100958.72
2022-11-19T16:45:50.254Z,100956.75
2022-11-19T16:48:32.747Z,100947.53
2022-11-19T16:51:01.059Z,100950.31
2022-11-19T16:53:43.529Z,100955.94
2022-11-19T16:56:16.639Z,100955.94
2022-11-19T16:58:46.000Z,100960.34
2022-11-19T17:01:13.658Z,100958.72
2022-11-19T17:03:41.284Z,100953.13
2022-11-19T17:06:09.729Z,100954.75
2022-11-19T17:08:37.730Z,100959.53
2022-11-19T17:11:34.928Z,100960.34
2022-11-19T17:14:10.625Z,100956.38
2022-11-19T17:16:38.167Z,100955.56
2022-11-19T17:19:14.958Z,100957.53
2022-11-19T17:21:42.608Z,100958.34
2022-11-19T17:24:11.453Z,100959.16
2022-11-19T17:26:39.432Z,100949.13
2022-11-19T17:29:09.995Z,100957.22
2022-11-19T17:31:37.851Z,100963.97
2022-11-19T17:34:09.645Z,100956.38
2022-11-19T17:36:39.544Z,100962.81
2022-11-19T17:39:10.345Z,100967.56
2022-11-19T17:41:55.837Z,100960.34
2022-11-19T17:44:35.580Z,100963.63
2022-11-19T17:47:03.181Z,100974.81
2022-11-19T17:49:31.242Z,100965.22
2022-11-19T17:51:59.441Z,100974.81
2022-11-19T17:54:27.063Z,100970.38
2022-11-19T17:56:54.702Z,100974.81
2022-11-19T17:59:22.429Z,100984.38
2022-11-19T18:01:51.666Z,100980.44
2022-11-19T18:04:19.693Z,100966.75
2022-11-19T18:06:49.461Z,100965.94
2022-11-19T18:09:17.085Z,100967.56
2022-11-19T18:11:44.820Z,100965.94
2022-11-19T18:14:12.958Z,100965.94
2022-11-19T18:16:42.550Z,100972.03
2022-11-19T18:19:14.861Z,100966.75
2022-11-19T18:21:42.774Z,100962.72
2022-11-19T18:24:11.814Z,100968.31
2022-11-19T18:26:39.866Z,100964.78
2022-11-19T18:29:07.566Z,100964.34
2022-11-19T18:31:35.262Z,100965.94
2022-11-19T18:34:02.984Z,100965.16
2022-11-19T18:36:32.478Z,100966.75
2022-11-19T18:39:00.195Z,100970.38
2022-11-19T18:41:28.000Z,100967.56
2022-11-19T18:44:13.745Z,100963.63
2022-11-19T18:46:41.380Z,100967.56
2022-11-19T18:49:09.077Z,100972.38
2022-11-19T18:51:38.381Z,100963.63
2022-11-19T18:54:06.112Z,100960.34
2022-11-19T18:59:22.717Z,100976.34
2022-11-19T19:01:52.175Z,100966.75
2022-11-19T19:04:19.918Z,100968.75
2022-11-19T19:06:48.986Z,100971.56
2022-11-19T19:09:20.134Z,100977.16
2022-11-19T19:12:09.866Z,100971.56
2022-11-19T19:14:40.513Z,100965.94
2022-11-19T19:17:08.259Z,100965.94
2022-11-19T19:19:36.487Z,100968.75
2022-11-19T19:22:05.833Z,100971.56
2022-11-19T19:24:33.555Z,100970.75
2022-11-19T19:27:01.187Z,100971.56
2022-11-19T19:29:28.795Z,100978.78
2022-11-19T19:31:57.067Z,100977.16
2022-11-19T19:34:24.954Z,100977.97
2022-11-19T19:36:53.676Z,100984.38
2022-11-19T19:39:23.150Z,100977.97
2022-11-19T19:41:51.071Z,100983.56
2022-11-19T19:44:18.897Z,100984.38
2022-11-19T19:46:48.001Z,100979.63
2022-11-19T19:49:15.695Z,100985.22
2022-11-19T19:51:43.311Z,100978.78
2022-11-19T19:54:10.855Z,100977.16
2022-11-19T19:56:39.871Z,100977.16
2022-11-19T19:59:07.634Z,100976.34
2022-11-19T20:01:35.755Z,100982.75
2022-11-19T20:04:03.863Z,100989.53
2022-11-19T20:06:31.443Z,100985.56
2022-11-19T20:08:59.059Z,100982.75
2022-11-19T20:11:26.781Z,100987.56
2022-11-19T20:13:56.556Z,100991.16
2022-11-19T20:16:24.836Z,100988.38
2022-11-19T20:18:53.114Z,100991.16
2022-11-19T20:21:21.130Z,101005.19
2022-11-19T20:23:48.694Z,101007.97
2022-11-19T20:26:17.058Z,100999.56
2022-11-19T20:28:44.746Z,101009.97
2022-11-19T20:31:14.135Z,101009.16
2022-11-19T20:33:42.294Z,101006.72
2022-11-19T20:36:10.116Z,101011.53
2022-11-19T20:38:38.122Z,101008.72
2022-11-19T20:41:06.221Z,101000.31
2022-11-19T20:43:52.887Z,101007.53
2022-11-19T20:46:22.240Z,101011.53
2022-11-19T20:48:49.895Z,101010.72
2022-11-19T20:51:19.754Z,101017.94
2022-11-19T20:53:47.366Z,101015.94
2022-11-19T20:56:15.431Z,101009.91
2022-11-19T20:58:44.016Z,101007.09
2022-11-19T21:01:11.859Z,101017.13
2022-11-19T21:03:40.893Z,101006.72
2022-11-19T21:06:08.851Z,101011.53
2022-11-19T21:08:36.610Z,101007.09
2022-11-19T21:11:04.576Z,101011.53
2022-11-19T21:13:32.121Z,101009.53
2022-11-19T21:15:59.683Z,101007.53
2022-11-19T21:18:30.117Z,101005.91
2022-11-19T21:21:02.527Z,101007.53
2022-11-19T21:23:30.323Z,101007.53
2022-11-19T21:26:00.978Z,101003.13
2022-11-19T21:28:28.858Z,100997.50
2022-11-19T21:30:56.426Z,101007.53
2022-11-19T21:33:26.355Z,101004.72
2022-11-19T21:35:55.285Z,100991.91
2022-11-19T21:38:24.246Z,100994.72
2022-11-19T21:40:51.889Z,100989.91
2022-11-19T21:43:19.590Z,100981.88
2022-11-19T21:45:48.889Z,100985.84
2022-11-19T21:48:16.534Z,100984.69
2022-11-19T21:50:44.117Z,100978.63
2022-11-19T21:53:12.012Z,100984.22
2022-11-19T21:55:42.454Z,100984.22
2022-11-19T21:58:10.420Z,100982.59
2022-11-19T22:00:38.076Z,100989.81
2022-11-19T22:03:05.805Z,100982.59
2022-11-19T22:05:33.599Z,100977.81
2022-11-19T22:08:01.196Z,100983.41
2022-11-19T22:10:29.114Z,100978.19
2022-11-19T22:12:59.162Z,100969.78
2022-11-19T22:15:27.032Z,100974.19
2022-11-19T22:17:54.836Z,100966.97
2022-11-19T22:20:23.766Z,100969.78
2022-11-19T22:22:51.499Z,100966.97
2022-11-19T22:25:19.234Z,100969.78
2022-11-19T22:27:46.988Z,100968.16
2022-11-19T22:30:16.383Z,100972.94
2022-11-19T22:32:44.332Z,100968.16
2022-11-19T22:35:12.022Z,100970.97
2022-11-19T22:37:39.650Z,100955.31
2022-11-19T22:40:07.981Z,100958.94
2022-11-19T22:42:35.544Z,100956.16
2022-11-19T22:45:03.114Z,100950.88
2022-11-19T22:47:32.038Z,100948.56
2022-11-19T22:49:59.731Z,100948.56
2022-11-19T22:52:27.310Z,100947.75
2022-11-19T22:54:54.962Z,100944.09
2022-11-19T22:57:22.533Z,100944.94
2022-11-19T22:59:50.120Z,100938.50
2022-11-19T23:02:17.705Z,100942.47
2022-11-19T23:04:46.706Z,100939.34
2022-11-19T23:07:14.393Z,100944.47
2022-11-19T23:09:42.225Z,100939.69
2022-11-19T23:12:27.551Z,100942.47
2022-11-19T23:14:55.351Z,100941.66
2022-11-19T23:46:36.540Z,100939.25
2022-11-19T23:49:04.181Z,100937.63
2022-11-19T23:51:32.465Z,100934.81
2022-11-19T23:54:00.192Z,100936.00
2022-11-19T23:56:27.769Z,100933.22
2022-11-19T23:58:55.465Z,100928.41
